Fairbanks International, AK

8:47 PM AKDT on October 25, 2014 (GMT -0800)
Ladd Army Air Field | Change Station
CLOSE
Current Station
Airport
Location: Fairbanks Ft. Wainwright,
Elevation: 453 ft
Nearby Weather Stations

Elev 453 ft 64.84 °N, 147.61 °W | Updated 51 minutes ago

Overcast
Overcast
24 °F
Feels Like 17 °F
N
6
Wind Variable Wind from ENE

Today
High -- | Low -- °F
--% Chance of Precip.
Yesterday
High -- | Low -- °F
Precip. -- in
9:16 AM 5:53 PM
Waxing Crescent, 6% visible
Pressure 29.91 in
Visibility 10.0 miles
Clouds Overcast 1900 ft
Windchill 17 °F
Dew Point 19 °F
Humidity 81%
Rainfall 0.00 in
Snow Depth Not available.
UV 0 out of 12
Pollen Not available.
Air Quality Not available.
Flu Activity Local Activity
METAR PAFB 260356Z AUTO 06005KT 10SM OVC019 M04/M07 A2988 RMK SLP127 T10441072 $ VIA AUTODIAL

More Conditions Fewer Conditions

Pressure 29.91 in
Visibility 10.0 miles
Clouds Overcast 1900 ft
Windchill 17 °F
Dew Point 19 °F
Humidity 81%
Rainfall 0.00 in
Snow Depth Not available.
UV 0 out of 12
Pollen Not available.
Air Quality Not available.
Flu Activity Local Activity
METAR PAFB 260356Z AUTO 06005KT 10SM OVC019 M04/M07 A2988 RMK SLP127 T10441072 $ VIA AUTODIAL

More Conditions Fewer Conditions

10-Day Weather Forecast

Almanac

Astronomy

Oct. 25, 2014 Rise Set
Actual Time 9:16 AM AKDT 5:53 PM AKDT
Civil Twilight 8:23 AM AKDT 6:45 PM AKDT
Nautical Twilight 7:26 AM AKDT 7:42 PM AKDT
Astronomical Twilight 6:29 AM AKDT 8:39 PM AKDT
Moon 11:41 AM AKDT (10/25) 6:44 PM AKDT (10/25)
Length of Visible Light 10h 21m
Length of Day
8h 36m
Tomorrow will be 6m 44s shorter.
Waxing Crescent, 6% of the Moon is Illuminated
Oct 26
Waxing Crescent
Oct 30
First Quarter
Nov 6
Full
Nov 14
Last Quarter
Nov 22
New

Yesterday's Extremes

State Highs State Lows

Community

WunderPhotos

Upload Photos

1,765,111 photos uploaded!

Nearby

Snow Depth

Station Depth Elevation
Little Chena Ridge 6 in 2000 ft
Munson Ridge 12 in 3100 ft
Mt. Ryan 8 in 2800 ft
Monument Creek 7 in 1850 ft
Teuchet Creek 6 in 1640 ft

Earthquake Activity

City Distance Mag. Time & Date
No recent earthquake activity has been reported nearby.
Minimum magnitude displayed is 2.5.

Coastal Water Temperatures

Place Temperature
No Stations Reporting

Nearby Weather Stations